sensor_id;sensor_type;location;lat;lon;timestamp;P1;durP1;ratioP1;P2;durP2;ratioP2
45388;SDS011;31127;52.078;4.370;2023-01-05T10:12:45;66.38;;;11.15;;
45388;SDS011;31127;52.078;4.370;2023-01-05T10:17:58;62.75;;;10.30;;
45388;SDS011;31127;52.078;4.370;2023-01-05T10:23:39;41.78;;;10.05;;
45388;SDS011;31127;52.078;4.370;2023-01-05T10:28:18;48.13;;;9.10;;
45388;SDS011;31127;52.078;4.370;2023-01-05T10:43:39;75.00;;;12.50;;
45388;SDS011;31127;52.078;4.370;2023-01-05T10:48:36;39.88;;;8.65;;
45388;SDS011;31127;52.078;4.370;2023-01-05T10:53:35;39.08;;;9.38;;
45388;SDS011;31127;52.078;4.370;2023-01-05T10:58:33;36.75;;;10.02;;
45388;SDS011;31127;52.078;4.370;2023-01-05T11:03:33;38.88;;;9.45;;
45388;SDS011;31127;52.078;4.370;2023-01-05T11:08:32;39.45;;;8.05;;
45388;SDS011;31127;52.078;4.370;2023-01-05T11:13:31;32.22;;;8.15;;
45388;SDS011;31127;52.078;4.370;2023-01-05T11:23:32;30.45;;;8.77;;
45388;SDS011;31127;52.078;4.370;2023-01-05T11:28:28;33.63;;;8.38;;
45388;SDS011;31127;52.078;4.370;2023-01-05T11:33:25;30.90;;;7.93;;
45388;SDS011;31127;52.078;4.370;2023-01-05T11:38:23;30.80;;;8.55;;
45388;SDS011;31127;52.078;4.370;2023-01-05T11:43:22;36.20;;;8.40;;
45388;SDS011;31127;52.078;4.370;2023-01-05T11:48:20;36.33;;;8.68;;
45388;SDS011;31127;52.078;4.370;2023-01-05T11:58:22;34.95;;;9.13;;
45388;SDS011;31127;52.078;4.370;2023-01-05T12:08:44;41.20;;;9.60;;
45388;SDS011;31127;52.078;4.370;2023-01-05T12:18:58;37.45;;;8.38;;
45388;SDS011;31127;52.078;4.370;2023-01-05T12:29:13;45.75;;;8.98;;
45388;SDS011;31127;52.078;4.370;2023-01-05T12:49:29;41.35;;;9.27;;
45388;SDS011;31127;52.078;4.370;2023-01-05T12:59:29;41.63;;;9.70;;
45388;SDS011;31127;52.078;4.370;2023-01-05T13:04:36;34.35;;;7.68;;
45388;SDS011;31127;52.078;4.370;2023-01-05T13:09:32;36.78;;;7.85;;
45388;SDS011;31127;52.078;4.370;2023-01-05T13:14:33;45.30;;;8.38;;
45388;SDS011;31127;52.078;4.370;2023-01-05T13:19:48;36.72;;;7.13;;
45388;SDS011;31127;52.078;4.370;2023-01-05T13:24:51;36.80;;;7.93;;
45388;SDS011;31127;52.078;4.370;2023-01-05T13:29:49;40.80;;;7.90;;
45388;SDS011;31127;52.078;4.370;2023-01-05T13:55:31;48.80;;;9.00;;
45388;SDS011;31127;52.078;4.370;2023-01-05T14:00:34;41.20;;;8.15;;
45388;SDS011;31127;52.078;4.370;2023-01-05T14:05:35;42.25;;;8.60;;
45388;SDS011;31127;52.078;4.370;2023-01-05T14:10:33;45.83;;;9.07;;
45388;SDS011;31127;52.078;4.370;2023-01-05T14:20:32;43.13;;;7.93;;
45388;SDS011;31127;52.078;4.370;2023-01-05T14:30:32;54.97;;;10.05;;
45388;SDS011;31127;52.078;4.370;2023-01-05T14:35:31;56.53;;;7.72;;
45388;SDS011;31127;52.078;4.370;2023-01-05T14:45:29;38.60;;;7.28;;
45388;SDS011;31127;52.078;4.370;2023-01-05T14:50:39;32.88;;;7.13;;
45388;SDS011;31127;52.078;4.370;2023-01-05T14:55:36;26.42;;;5.00;;
45388;SDS011;31127;52.078;4.370;2023-01-05T15:00:42;36.22;;;6.53;;
45388;SDS011;31127;52.078;4.370;2023-01-05T15:05:58;32.60;;;6.50;;
45388;SDS011;31127;52.078;4.370;2023-01-05T15:16:15;27.30;;;5.80;;
45388;SDS011;31127;52.078;4.370;2023-01-05T15:31:39;43.22;;;8.48;;
45388;SDS011;31127;52.078;4.370;2023-01-05T15:36:39;43.33;;;10.45;;
45388;SDS011;31127;52.078;4.370;2023-01-05T15:41:37;33.15;;;12.32;;
45388;SDS011;31127;52.078;4.370;2023-01-05T15:46:33;37.10;;;9.60;;
45388;SDS011;31127;52.078;4.370;2023-01-05T15:51:30;38.67;;;9.45;;
45388;SDS011;31127;52.078;4.370;2023-01-05T15:56:33;33.70;;;11.35;;
45388;SDS011;31127;52.078;4.370;2023-01-05T16:01:28;40.30;;;14.50;;
45388;SDS011;31127;52.078;4.370;2023-01-05T16:06:24;41.60;;;20.20;;
45388;SDS011;31127;52.078;4.370;2023-01-05T16:11:30;29.55;;;12.90;;
45388;SDS011;31127;52.078;4.370;2023-01-05T16:16:32;33.90;;;20.33;;
45388;SDS011;31127;52.078;4.370;2023-01-05T16:21:41;19.70;;;10.25;;
45388;SDS011;31127;52.078;4.370;2023-01-05T16:26:39;16.08;;;10.50;;
45388;SDS011;31127;52.078;4.370;2023-01-05T16:31:34;21.55;;;10.18;;
45388;SDS011;31127;52.078;4.370;2023-01-05T16:36:30;24.27;;;14.77;;
45388;SDS011;31127;52.078;4.370;2023-01-05T16:41:26;21.10;;;11.47;;
45388;SDS011;31127;52.078;4.370;2023-01-05T16:46:25;28.60;;;16.42;;
45388;SDS011;31127;52.078;4.370;2023-01-05T16:51:23;16.40;;;8.77;;
45388;SDS011;31127;52.078;4.370;2023-01-05T16:56:46;18.50;;;8.55;;
45388;SDS011;31127;52.078;4.370;2023-01-05T17:01:44;20.25;;;9.20;;
45388;SDS011;31127;52.078;4.370;2023-01-05T17:06:46;15.80;;;10.03;;
45388;SDS011;31127;52.078;4.370;2023-01-05T17:11:41;19.77;;;10.93;;
45388;SDS011;31127;52.078;4.370;2023-01-05T17:16:37;21.67;;;9.73;;
45388;SDS011;31127;52.078;4.370;2023-01-05T17:21:32;18.73;;;9.73;;
45388;SDS011;31127;52.078;4.370;2023-01-05T17:26:34;19.83;;;9.65;;
45388;SDS011;31127;52.078;4.370;2023-01-05T17:31:30;17.98;;;7.60;;
45388;SDS011;31127;52.078;4.370;2023-01-05T17:36:27;20.40;;;7.30;;
45388;SDS011;31127;52.078;4.370;2023-01-05T17:41:30;17.35;;;7.45;;
45388;SDS011;31127;52.078;4.370;2023-01-05T17:46:30;13.73;;;7.70;;
45388;SDS011;31127;52.078;4.370;2023-01-05T17:51:27;25.23;;;8.13;;
45388;SDS011;31127;52.078;4.370;2023-01-05T17:56:31;22.83;;;7.72;;
45388;SDS011;31127;52.078;4.370;2023-01-05T18:01:30;25.00;;;9.98;;
45388;SDS011;31127;52.078;4.370;2023-01-05T18:06:27;24.52;;;8.07;;
45388;SDS011;31127;52.078;4.370;2023-01-05T18:11:26;23.77;;;7.40;;
45388;SDS011;31127;52.078;4.370;2023-01-05T18:16:21;19.00;;;7.07;;
45388;SDS011;31127;52.078;4.370;2023-01-05T18:21:16;21.85;;;5.93;;
45388;SDS011;31127;52.078;4.370;2023-01-05T18:26:12;20.27;;;5.03;;
45388;SDS011;31127;52.078;4.370;2023-01-05T18:31:11;26.02;;;5.32;;
45388;SDS011;31127;52.078;4.370;2023-01-05T18:36:07;22.13;;;5.72;;
45388;SDS011;31127;52.078;4.370;2023-01-05T18:41:03;21.48;;;5.43;;
45388;SDS011;31127;52.078;4.370;2023-01-05T18:45:59;25.55;;;6.07;;
45388;SDS011;31127;52.078;4.370;2023-01-05T18:50:55;17.15;;;4.72;;
45388;SDS011;31127;52.078;4.370;2023-01-05T18:55:50;26.17;;;5.45;;
45388;SDS011;31127;52.078;4.370;2023-01-05T19:00:46;21.90;;;4.55;;
45388;SDS011;31127;52.078;4.370;2023-01-05T19:05:42;29.05;;;5.43;;
45388;SDS011;31127;52.078;4.370;2023-01-05T19:10:38;32.53;;;5.72;;
45388;SDS011;31127;52.078;4.370;2023-01-05T19:15:34;24.33;;;4.82;;
45388;SDS011;31127;52.078;4.370;2023-01-05T19:20:30;38.78;;;6.88;;
45388;SDS011;31127;52.078;4.370;2023-01-05T19:25:26;35.78;;;6.63;;
45388;SDS011;31127;52.078;4.370;2023-01-05T19:30:21;37.38;;;7.13;;
45388;SDS011;31127;52.078;4.370;2023-01-05T19:35:18;54.50;;;9.07;;
45388;SDS011;31127;52.078;4.370;2023-01-05T19:40:14;40.92;;;7.90;;
45388;SDS011;31127;52.078;4.370;2023-01-05T19:45:10;36.92;;;6.82;;
45388;SDS011;31127;52.078;4.370;2023-01-05T19:50:06;48.80;;;7.45;;
45388;SDS011;31127;52.078;4.370;2023-01-05T19:55:02;43.78;;;7.10;;
45388;SDS011;31127;52.078;4.370;2023-01-05T19:59:57;32.80;;;6.88;;
45388;SDS011;31127;52.078;4.370;2023-01-05T20:04:53;38.67;;;6.60;;
45388;SDS011;31127;52.078;4.370;2023-01-05T20:09:48;34.20;;;5.85;;
45388;SDS011;31127;52.078;4.370;2023-01-05T20:14:44;35.95;;;5.72;;
45388;SDS011;31127;52.078;4.370;2023-01-05T20:19:40;36.17;;;6.55;;
45388;SDS011;31127;52.078;4.370;2023-01-05T20:24:35;39.20;;;5.70;;
45388;SDS011;31127;52.078;4.370;2023-01-05T20:29:31;37.55;;;6.82;;
45388;SDS011;31127;52.078;4.370;2023-01-05T20:34:27;31.00;;;4.57;;
45388;SDS011;31127;52.078;4.370;2023-01-05T20:39:26;27.80;;;4.70;;
45388;SDS011;31127;52.078;4.370;2023-01-05T20:44:22;28.60;;;5.38;;
45388;SDS011;31127;52.078;4.370;2023-01-05T20:49:18;24.20;;;4.22;;
45388;SDS011;31127;52.078;4.370;2023-01-05T20:54:14;29.00;;;6.20;;
45388;SDS011;31127;52.078;4.370;2023-01-05T20:59:14;28.10;;;5.03;;
45388;SDS011;31127;52.078;4.370;2023-01-05T21:04:30;33.85;;;6.07;;
45388;SDS011;31127;52.078;4.370;2023-01-05T21:09:26;22.00;;;4.50;;
45388;SDS011;31127;52.078;4.370;2023-01-05T21:14:23;18.88;;;3.65;;
45388;SDS011;31127;52.078;4.370;2023-01-05T21:19:19;23.85;;;4.72;;
45388;SDS011;31127;52.078;4.370;2023-01-05T21:24:16;19.33;;;3.65;;
45388;SDS011;31127;52.078;4.370;2023-01-05T21:29:14;25.35;;;4.20;;
45388;SDS011;31127;52.078;4.370;2023-01-05T21:34:10;18.50;;;3.28;;
45388;SDS011;31127;52.078;4.370;2023-01-05T21:39:06;19.00;;;4.03;;
45388;SDS011;31127;52.078;4.370;2023-01-05T21:44:02;15.27;;;2.90;;
45388;SDS011;31127;52.078;4.370;2023-01-05T21:48:59;23.83;;;3.53;;
45388;SDS011;31127;52.078;4.370;2023-01-05T21:53:54;13.07;;;4.60;;
45388;SDS011;31127;52.078;4.370;2023-01-05T21:59:08;13.30;;;3.58;;
45388;SDS011;31127;52.078;4.370;2023-01-05T22:04:03;11.48;;;2.58;;
45388;SDS011;31127;52.078;4.370;2023-01-05T22:08:59;24.83;;;10.00;;
45388;SDS011;31127;52.078;4.370;2023-01-05T22:13:54;19.53;;;3.97;;
45388;SDS011;31127;52.078;4.370;2023-01-05T22:18:49;13.93;;;2.60;;
45388;SDS011;31127;52.078;4.370;2023-01-05T22:23:45;16.43;;;3.33;;
45388;SDS011;31127;52.078;4.370;2023-01-05T22:28:41;18.75;;;4.00;;
45388;SDS011;31127;52.078;4.370;2023-01-05T22:33:38;12.02;;;2.70;;
45388;SDS011;31127;52.078;4.370;2023-01-05T22:38:35;12.98;;;3.00;;
45388;SDS011;31127;52.078;4.370;2023-01-05T22:43:31;11.70;;;3.17;;
45388;SDS011;31127;52.078;4.370;2023-01-05T22:48:27;12.18;;;3.30;;
45388;SDS011;31127;52.078;4.370;2023-01-05T22:53:25;17.23;;;3.85;;
45388;SDS011;31127;52.078;4.370;2023-01-05T22:58:21;16.33;;;3.17;;
45388;SDS011;31127;52.078;4.370;2023-01-05T23:03:17;16.13;;;4.07;;
45388;SDS011;31127;52.078;4.370;2023-01-05T23:08:13;11.32;;;3.30;;
45388;SDS011;31127;52.078;4.370;2023-01-05T23:13:08;12.07;;;3.43;;
45388;SDS011;31127;52.078;4.370;2023-01-05T23:18:04;13.82;;;3.95;;
45388;SDS011;31127;52.078;4.370;2023-01-05T23:22:59;6.13;;;2.13;;
45388;SDS011;31127;52.078;4.370;2023-01-05T23:27:55;12.30;;;2.20;;
45388;SDS011;31127;52.078;4.370;2023-01-05T23:32:50;8.93;;;1.60;;
45388;SDS011;31127;52.078;4.370;2023-01-05T23:37:45;7.93;;;1.67;;
45388;SDS011;31127;52.078;4.370;2023-01-05T23:42:41;7.32;;;1.98;;
